This is the latest recevied weather packets stored in our database for station/object DM5AO-10. If no packets are shown the sender has not sent any weather packets the latest 10 day(s).
| Time | Temp. | Humidity | Pressure | Rain* | Wind** | Luminosity | Snow |
|---|---|---|---|---|---|---|---|
| 1787859492 | 26.67° C | 36% | 1016.9 hPa | - | - | - | - |
| 1787858591 | 27.22° C | 35% | 1017 hPa | - | - | - | - |
| 1787857690 | 27.22° C | 35% | 1017.2 hPa | - | - | - | - |
| 1787856789 | 27.78° C | 35% | 1017.1 hPa | - | - | - | - |
| 1787855888 | 27.22° C | 36% | 1017.1 hPa | - | - | - | - |
| 1787854987 | 27.78° C | 36% | 1017 hPa | - | - | - | - |
| 1787854165 | 27.78° C | 35% | 1017 hPa | - | - | - | - |
| 1787854087 | 27.78° C | 35% | 1017 hPa | - | - | - | - |
| 1787853256 | 27.78° C | 35% | 1017.3 hPa | - | - | - | - |
| 1787853186 | 27.78° C | 35% | 1017.3 hPa | - | - | - | - |
| 1787852285 | 28.33° C | 35% | 1017.1 hPa | - | - | - | - |
| 1787851384 | 28.33° C | 34% | 1017 hPa | - | - | - | - |
| 1787850488 | 28.89° C | 33% | 1016.9 hPa | - | - | - | - |
| 1787849582 | 29.44° C | 34% | 1017.2 hPa | - | - | - | - |
| 1787848682 | 29.44° C | 33% | 1016.9 hPa | - | - | - | - |
| 1787847812 | 30° C | 33% | 1016.8 hPa | - | - | - | - |
| 1787847781 | 30° C | 33% | 1016.8 hPa | - | - | - | - |
| 1787846880 | 30° C | 32% | 1017 hPa | - | - | - | - |
| 1787845979 | 30.56° C | 32% | 1017.2 hPa | - | - | - | - |
| 1787845078 | 31.11° C | 31% | 1017.5 hPa | - | - | - | - |
| 1787844177 | 33.33° C | 29% | 1017.6 hPa | - | - | - | - |
| 1787843277 | 32.22° C | 30% | 1017.8 hPa | - | - | - | - |
| 1787842376 | 31.67° C | 30% | 1017.7 hPa | - | - | - | - |
| 1787841475 | 35° C | 27% | 1017.9 hPa | - | - | - | - |
| 1787840574 | 32.22° C | 31% | 1017.9 hPa | - | - | - | - |
* Rain since midnight (hover to see other rain measurements)
** Current wind speed in m/s (hover to see current wind gust speed)